createdAt,value
2022-09-19T00:03:17.158Z,99324.23
2022-09-19T00:06:19.405Z,99326.91
2022-09-19T00:09:11.742Z,99324.98
2022-09-19T00:12:18.427Z,99325.54
2022-09-19T00:15:30.611Z,99326.25
2022-09-19T00:18:25.096Z,99322.90
2022-09-19T00:21:14.679Z,99326.15
2022-09-19T00:24:23.150Z,99322.59
2022-09-19T00:27:06.941Z,99318.46
2022-09-19T00:30:19.497Z,99314.72
2022-09-19T00:33:23.667Z,99313.34
2022-09-19T00:36:15.850Z,99313.70
2022-09-19T00:38:51.848Z,99313.92
2022-09-19T00:41:46.869Z,99315.23
2022-09-19T00:44:30.627Z,99308.90
2022-09-19T00:47:20.548Z,99314.84
2022-09-19T00:50:23.937Z,99315.30
2022-09-19T00:53:34.017Z,99314.90
2022-09-19T00:56:08.782Z,99315.70
2022-09-19T00:59:02.962Z,99317.35
2022-09-19T01:02:02.944Z,99315.50
2022-09-19T01:05:00.471Z,99318.67
2022-09-19T01:07:50.346Z,99319.44
2022-09-19T01:11:05.161Z,99318.60
2022-09-19T01:14:05.607Z,99318.95
2022-09-19T01:16:51.782Z,99320.77
2022-09-19T01:20:20.417Z,99320.53
2022-09-19T01:23:51.257Z,99321.21
2022-09-19T01:27:11.624Z,99318.82
2022-09-19T01:30:42.048Z,99319.64
2022-09-19T01:33:57.082Z,99317.73
2022-09-19T01:37:16.386Z,99317.94
2022-09-19T01:40:04.726Z,99316.63
2022-09-19T01:43:28.995Z,99318.09
2022-09-19T01:47:03.657Z,99315.77
2022-09-19T01:50:04.582Z,99313.35
2022-09-19T01:53:20.887Z,99319.92
2022-09-19T01:56:57.901Z,99315.41
2022-09-19T02:00:17.382Z,99318.65
2022-09-19T02:03:47.956Z,99318.88
2022-09-19T02:07:15.062Z,99318.23
2022-09-19T02:10:01.590Z,99315.50
2022-09-19T02:12:59.113Z,99312.55
2022-09-19T02:16:11.182Z,99308.21
2022-09-19T02:19:30.821Z,99310.96
2022-09-19T02:23:00.357Z,99316.38
2022-09-19T02:25:48.931Z,99314.39
2022-09-19T02:28:56.582Z,99315.05
2022-09-19T02:31:28.999Z,99316.52
2022-09-19T02:34:08.204Z,99312.31
2022-09-19T02:36:54.151Z,99315.83
2022-09-19T02:39:42.858Z,99319.45
2022-09-19T02:43:07.546Z,99319.14
2022-09-19T02:46:22.378Z,99321.09
2022-09-19T02:49:21.787Z,99323.56
2022-09-19T02:52:31.731Z,99326.34
2022-09-19T02:55:23.239Z,99328.77
2022-09-19T02:58:12.809Z,99329.67
2022-09-19T03:01:10.699Z,99330.15
2022-09-19T03:04:16.248Z,99332.62
2022-09-19T03:07:08.607Z,99331.31
2022-09-19T03:10:37.373Z,99330.80
2022-09-19T03:13:34.922Z,99332.62
2022-09-19T03:16:35.515Z,99333.33
2022-09-19T03:19:13.990Z,99335.30
2022-09-19T03:22:15.374Z,99338.19
2022-09-19T03:25:04.917Z,99341.38
2022-09-19T03:28:14.528Z,99349.95
2022-09-19T03:31:27.387Z,99353.20
2022-09-19T03:34:30.844Z,99352.35
2022-09-19T03:37:04.864Z,99350.35
2022-09-19T03:40:23.905Z,99354.02
2022-09-19T03:42:59.216Z,99353.65
2022-09-19T03:46:01.716Z,99355.30
2022-09-19T03:48:41.141Z,99355.55
2022-09-19T03:51:21.681Z,99355.48
2022-09-19T03:54:02.462Z,99360.45
2022-09-19T03:56:42.363Z,99357.25
2022-09-19T04:00:00.937Z,99360.48
2022-09-19T04:02:53.826Z,99361.20
2022-09-19T04:05:33.663Z,99365.28
2022-09-19T04:08:36.892Z,99362.76
2022-09-19T04:11:16.513Z,99370.35
2022-09-19T04:13:55.352Z,99369.77
2022-09-19T04:16:44.277Z,99375.04
2022-09-19T04:19:32.528Z,99377.54
2022-09-19T04:22:31.784Z,99377.30
2022-09-19T04:25:46.506Z,99382.77
2022-09-19T04:28:34.274Z,99390.04
2022-09-19T04:31:16.164Z,99393.27
2022-09-19T04:34:10.007Z,99398.39
2022-09-19T04:36:53.190Z,99398.89
2022-09-19T04:39:24.561Z,99405.36
2022-09-19T04:42:04.339Z,99404.56
2022-09-19T04:44:51.253Z,99407.25
2022-09-19T04:47:34.262Z,99414.37
2022-09-19T04:50:22.599Z,99409.09
2022-09-19T04:53:16.981Z,99412.11
2022-09-19T04:56:18.484Z,99414.98
2022-09-19T04:59:19.562Z,99421.59
2022-09-19T05:01:53.937Z,99420.95
2022-09-19T05:04:28.197Z,99424.59
2022-09-19T05:07:46.567Z,99426.81
2022-09-19T05:10:19.375Z,99430.77
2022-09-19T05:13:04.483Z,99430.63
2022-09-19T05:15:38.084Z,99430.19
2022-09-19T05:18:14.337Z,99432.45
2022-09-19T05:20:55.802Z,99437.25
2022-09-19T05:23:36.827Z,99443.05
2022-09-19T05:26:09.653Z,99445.68
2022-09-19T05:28:51.439Z,99451.16
2022-09-19T05:31:28.294Z,99452.16
2022-09-19T05:34:29.943Z,99450.39
2022-09-19T05:37:06.026Z,99450.34
2022-09-19T05:40:01.888Z,99457.45
2022-09-19T05:42:56.107Z,99460.55
2022-09-19T05:45:27.905Z,99463.77
2022-09-19T05:48:30.424Z,99466.30
2022-09-19T05:51:09.862Z,99471.71
2022-09-19T05:53:57.327Z,99473.09
2022-09-19T05:56:51.340Z,99479.98
2022-09-19T05:59:24.746Z,99482.05
2022-09-19T06:01:53.539Z,99482.76
2022-09-19T06:04:44.279Z,99485.64
2022-09-19T06:07:13.334Z,99487.42
2022-09-19T06:09:54.072Z,99486.73
2022-09-19T06:12:25.802Z,99489.90
2022-09-19T06:14:55.353Z,99496.14
2022-09-19T06:17:54.877Z,99493.83
2022-09-19T06:20:49.550Z,99496.80
2022-09-19T06:23:28.505Z,99491.16
2022-09-19T06:25:56.753Z,99491.54
2022-09-19T06:28:25.557Z,99492.32
2022-09-19T06:31:13.914Z,99497.70
2022-09-19T06:34:13.398Z,99502.52
2022-09-19T06:37:13.760Z,99504.25
2022-09-19T06:39:42.266Z,99502.67
2022-09-19T06:42:36.868Z,99503.33
2022-09-19T06:45:41.643Z,99511.66
2022-09-19T06:48:23.983Z,99511.65
2022-09-19T06:51:20.252Z,99516.54
2022-09-19T06:53:49.577Z,99522.80
2022-09-19T06:56:20.742Z,99521.56
2022-09-19T06:58:49.008Z,99522.27
2022-09-19T07:01:28.585Z,99529.61
2022-09-19T07:03:59.525Z,99527.69
2022-09-19T07:06:45.528Z,99533.79
2022-09-19T07:09:25.529Z,99537.33
2022-09-19T07:12:02.532Z,99537.27
2022-09-19T07:14:36.260Z,99539.47
2022-09-19T07:17:06.108Z,99544.57
2022-09-19T07:19:39.396Z,99543.91
2022-09-19T07:22:29.985Z,99552.15
2022-09-19T07:25:10.351Z,99556.19
2022-09-19T07:27:45.526Z,99553.34
2022-09-19T07:30:16.542Z,99553.18
2022-09-19T07:32:44.694Z,99556.45
2022-09-19T07:35:14.364Z,99555.16
2022-09-19T07:37:48.925Z,99557.05
2022-09-19T07:40:35.995Z,99563.63
2022-09-19T07:43:10.177Z,99564.59
2022-09-19T07:45:57.114Z,99570.66
2022-09-19T07:48:55.179Z,99567.66
2022-09-19T07:51:53.100Z,99572.05
2022-09-19T07:54:26.560Z,99573.41
2022-09-19T07:56:56.220Z,99580.13
2022-09-19T07:59:24.253Z,99579.02
2022-09-19T08:01:57.862Z,99581.91
2022-09-19T08:04:51.892Z,99579.06
2022-09-19T08:07:21.532Z,99586.86
2022-09-19T08:09:49.904Z,99582.11
2022-09-19T08:12:28.686Z,99595.41
2022-09-19T08:15:22.503Z,99592.02
2022-09-19T08:18:01.602Z,99595.16
2022-09-19T08:20:51.959Z,99597.91
2022-09-19T08:23:21.829Z,99601.10
2022-09-19T08:25:54.476Z,99605.59
2022-09-19T08:28:24.007Z,99616.45
2022-09-19T08:30:54.513Z,99612.29
2022-09-19T08:33:24.033Z,99608.59
2022-09-19T08:35:54.591Z,99614.83
2022-09-19T08:38:29.447Z,99615.77
2022-09-19T08:41:31.002Z,99614.15
2022-09-19T08:44:22.534Z,99621.84
2022-09-19T08:47:15.076Z,99623.45
2022-09-19T08:49:57.332Z,99620.46
2022-09-19T08:52:42.223Z,99612.58
2022-09-19T08:55:36.194Z,99618.14
2022-09-19T08:58:21.443Z,99616.99
2022-09-19T09:01:23.519Z,99623.05
2022-09-19T09:04:50.206Z,99630.34
2022-09-19T09:07:37.252Z,99623.02
2022-09-19T09:10:33.680Z,99630.40
2022-09-19T09:13:20.055Z,99627.92
2022-09-19T09:15:59.380Z,99631.18
2022-09-19T09:18:40.928Z,99633.67
2022-09-19T09:21:48.096Z,99634.34
2022-09-19T09:24:37.982Z,99638.70
2022-09-19T09:27:22.331Z,99644.09
2022-09-19T09:29:59.409Z,99642.23
2022-09-19T09:32:42.037Z,99639.77
2022-09-19T09:35:28.407Z,99651.15
2022-09-19T09:38:17.356Z,99648.61
2022-09-19T09:41:15.521Z,99647.67
2022-09-19T09:44:00.492Z,99646.83
2022-09-19T09:46:54.330Z,99646.44
2022-09-19T09:49:31.473Z,99651.38
2022-09-19T09:52:36.519Z,99657.68
2022-09-19T09:55:54.173Z,99661.08
2022-09-19T09:58:40.413Z,99666.66
2022-09-19T10:01:41.739Z,99665.83
2022-09-19T10:04:28.366Z,99671.79
2022-09-19T10:07:15.944Z,99667.05
2022-09-19T10:09:51.240Z,99676.27
2022-09-19T10:15:21.043Z,99670.62
2022-09-19T10:18:08.510Z,99673.33
2022-09-19T10:20:51.077Z,99675.80
2022-09-19T10:23:31.253Z,99677.48
2022-09-19T10:26:04.507Z,99680.27
2022-09-19T10:28:46.989Z,99684.54
2022-09-19T10:31:39.455Z,99682.69
2022-09-19T10:34:37.064Z,99683.34
2022-09-19T10:37:27.639Z,99689.27
2022-09-19T10:40:06.094Z,99683.85
2022-09-19T10:42:42.739Z,99685.27
2022-09-19T10:45:29.302Z,99696.02
2022-09-19T10:48:30.736Z,99693.30
2022-09-19T10:51:01.273Z,99693.45
2022-09-19T10:53:34.259Z,99694.59
2022-09-19T10:56:08.779Z,99700.80
2022-09-19T10:58:45.331Z,99700.63
2022-09-19T11:01:27.818Z,99700.61
2022-09-19T11:04:02.226Z,99708.76
2022-09-19T11:06:32.876Z,99702.91
2022-09-19T11:09:24.496Z,99708.02
2022-09-19T11:12:04.674Z,99705.42
2022-09-19T11:14:41.270Z,99701.38
2022-09-19T11:17:38.518Z,99705.27
2022-09-19T11:20:33.247Z,99704.05
2022-09-19T11:23:29.286Z,99704.55
2022-09-19T11:25:59.613Z,99704.61
2022-09-19T11:29:08.282Z,99703.58
2022-09-19T11:35:29.609Z,99706.24
2022-09-19T11:41:53.834Z,99705.84
2022-09-19T11:44:44.468Z,99708.66
2022-09-19T11:48:08.362Z,99705.85
2022-09-19T11:50:51.657Z,99703.31
2022-09-19T11:54:09.811Z,99700.40
2022-09-19T11:56:40.324Z,99701.52
2022-09-19T11:59:12.166Z,99694.90
2022-09-19T12:02:01.843Z,99698.71
2022-09-19T12:05:07.836Z,99705.12
2022-09-19T12:07:58.156Z,99709.38
2022-09-19T12:10:36.931Z,99700.39
2022-09-19T12:13:18.330Z,99709.59
2022-09-19T12:16:16.191Z,99704.41
2022-09-19T12:19:01.075Z,99710.00
2022-09-19T12:21:56.591Z,99703.71
2022-09-19T12:24:49.772Z,99699.89
2022-09-19T12:27:22.309Z,99702.33
2022-09-19T12:30:06.904Z,99701.46
2022-09-19T12:32:42.274Z,99694.62
2022-09-19T12:35:41.245Z,99700.23
2022-09-19T12:38:19.744Z,99699.06
2022-09-19T12:41:01.922Z,99695.73
2022-09-19T12:43:42.031Z,99695.32
2022-09-19T12:46:29.223Z,99691.40
2022-09-19T12:49:05.466Z,99690.14
2022-09-19T12:51:50.774Z,99694.23
2022-09-19T12:54:45.079Z,99697.70
2022-09-19T12:57:42.180Z,99698.13
2022-09-19T13:00:15.240Z,99698.88
2022-09-19T13:02:48.505Z,99699.34
2022-09-19T13:05:40.053Z,99699.20
2022-09-19T13:08:20.736Z,99707.59
2022-09-19T13:11:17.437Z,99709.08
2022-09-19T13:14:01.479Z,99712.45
2022-09-19T13:16:35.920Z,99709.96
2022-09-19T13:19:22.757Z,99708.87
2022-09-19T13:22:10.073Z,99709.62
2022-09-19T13:24:42.076Z,99708.27
2022-09-19T13:27:16.605Z,99710.21
2022-09-19T13:29:47.112Z,99707.55
2022-09-19T13:32:54.109Z,99710.73
2022-09-19T13:35:50.692Z,99717.99
2022-09-19T13:38:47.811Z,99711.23
2022-09-19T13:41:54.331Z,99717.27
2022-09-19T13:44:42.195Z,99721.13
2022-09-19T13:47:22.903Z,99724.46
2022-09-19T13:50:16.064Z,99724.10
2022-09-19T13:53:02.563Z,99727.87
2022-09-19T13:55:45.953Z,99731.70
2022-09-19T13:58:40.923Z,99729.60
2022-09-19T14:01:13.744Z,99730.20
2022-09-19T14:04:20.594Z,99721.42
2022-09-19T14:10:00.448Z,99733.16
2022-09-19T14:12:44.696Z,99727.77
2022-09-19T14:15:34.236Z,99729.17
2022-09-19T14:18:12.062Z,99731.46
2022-09-19T14:20:47.335Z,99739.33
2022-09-19T14:23:17.591Z,99735.70
2022-09-19T14:26:00.498Z,99734.47
2022-09-19T14:28:52.650Z,99734.01
2022-09-19T14:31:34.818Z,99731.70
2022-09-19T14:34:24.246Z,99731.30
2022-09-19T14:37:14.111Z,99732.45
2022-09-19T14:40:10.856Z,99740.91
2022-09-19T14:43:00.050Z,99736.23
2022-09-19T14:45:55.738Z,99737.73
2022-09-19T14:48:36.397Z,99737.20
2022-09-19T14:51:13.318Z,99742.38
2022-09-19T14:53:43.083Z,99743.07
2022-09-19T14:56:18.854Z,99739.41
2022-09-19T14:58:52.736Z,99738.08
2022-09-19T15:01:34.457Z,99744.20
2022-09-19T15:04:20.684Z,99739.84
2022-09-19T15:06:53.490Z,99747.73
2022-09-19T15:09:30.579Z,99744.02
2022-09-19T15:12:03.062Z,99751.66
2022-09-19T15:14:34.390Z,99745.11
2022-09-19T15:17:11.637Z,99743.43
2022-09-19T15:19:48.344Z,99735.63
2022-09-19T15:22:36.400Z,99738.76
2022-09-19T15:25:22.991Z,99738.44
2022-09-19T15:28:04.306Z,99736.28
2022-09-19T15:30:35.364Z,99738.83
2022-09-19T15:33:14.520Z,99732.80
2022-09-19T15:35:47.002Z,99741.14
2022-09-19T15:38:34.461Z,99738.02
2022-09-19T15:41:08.903Z,99741.98
2022-09-19T15:43:45.598Z,99743.61
2022-09-19T15:46:28.572Z,99742.44
2022-09-19T15:49:03.556Z,99747.10
2022-09-19T15:51:39.139Z,99747.27
2022-09-19T15:54:19.024Z,99746.64
2022-09-19T15:56:50.001Z,99742.91
2022-09-19T15:59:39.058Z,99748.33
2022-09-19T16:02:16.429Z,99752.23
2022-09-19T16:04:47.528Z,99761.23
2022-09-19T16:07:47.258Z,99763.35
2022-09-19T16:10:16.887Z,99770.42
2022-09-19T16:12:49.187Z,99772.84
2022-09-19T16:15:24.048Z,99774.45
2022-09-19T16:18:04.980Z,99772.67
2022-09-19T16:20:39.549Z,99772.70
2022-09-19T16:23:17.294Z,99775.52
2022-09-19T16:26:06.081Z,99781.83
2022-09-19T16:28:35.412Z,99784.01
2022-09-19T16:31:28.370Z,99787.20
2022-09-19T16:34:07.414Z,99791.23
2022-09-19T16:36:53.647Z,99797.23
2022-09-19T16:39:34.790Z,99798.19
2022-09-19T16:42:25.573Z,99805.27
2022-09-19T16:45:19.178Z,99811.43
2022-09-19T16:47:52.095Z,99818.11
2022-09-19T16:50:29.267Z,99818.60
2022-09-19T16:52:57.889Z,99816.67
2022-09-19T16:55:43.289Z,99821.88
2022-09-19T16:58:16.430Z,99827.33
2022-09-19T17:00:47.567Z,99828.79
2022-09-19T17:03:19.310Z,99830.23
2022-09-19T17:05:48.102Z,99827.23
2022-09-19T17:08:18.416Z,99830.11
2022-09-19T17:10:53.231Z,99835.20
2022-09-19T17:13:21.535Z,99839.74
2022-09-19T17:16:21.072Z,99839.71
2022-09-19T17:18:53.803Z,99843.08
2022-09-19T17:21:27.874Z,99846.47
2022-09-19T17:23:59.135Z,99849.32
2022-09-19T17:26:30.696Z,99848.71
2022-09-19T17:28:58.855Z,99854.73
2022-09-19T17:31:30.993Z,99859.08
2022-09-19T17:34:13.404Z,99861.15
2022-09-19T17:36:50.646Z,99861.84
2022-09-19T17:39:28.536Z,99865.91
2022-09-19T17:41:56.585Z,99868.98
2022-09-19T17:44:24.854Z,99870.52
2022-09-19T17:46:56.907Z,99877.23
2022-09-19T17:49:27.532Z,99877.05
2022-09-19T17:52:04.723Z,99879.91
2022-09-19T17:54:35.768Z,99881.52
2022-09-19T17:57:29.207Z,99885.27
2022-09-19T18:00:12.933Z,99893.48
2022-09-19T18:03:03.736Z,99898.48
2022-09-19T18:06:00.915Z,99902.58
2022-09-19T18:08:33.454Z,99906.88
2022-09-19T18:11:03.345Z,99913.63
2022-09-19T18:13:38.721Z,99915.81
2022-09-19T18:16:17.877Z,99916.23
2022-09-19T18:18:52.173Z,99922.08
2022-09-19T18:21:24.828Z,99920.64
2022-09-19T18:23:57.736Z,99924.33
2022-09-19T18:26:28.378Z,99921.33
2022-09-19T18:29:01.723Z,99923.06
2022-09-19T18:31:32.895Z,99924.54
2022-09-19T18:34:02.727Z,99924.59
2022-09-19T18:36:36.066Z,99925.94
2022-09-19T18:39:24.659Z,99927.16
2022-09-19T18:41:59.964Z,99935.09
2022-09-19T18:44:33.806Z,99939.85
2022-09-19T18:47:08.874Z,99946.77
2022-09-19T18:49:59.991Z,99944.75
2022-09-19T18:52:49.426Z,99952.05
2022-09-19T18:55:21.779Z,99960.30
2022-09-19T18:58:07.019Z,99959.09
2022-09-19T19:01:14.198Z,99967.06
2022-09-19T19:04:00.759Z,99967.25
2022-09-19T19:06:32.496Z,99972.65
2022-09-19T19:09:23.126Z,99971.86
2022-09-19T19:12:30.962Z,99963.80
2022-09-19T19:15:03.448Z,99968.04
2022-09-19T19:17:34.105Z,99967.27
2022-09-19T19:20:03.481Z,99966.56
2022-09-19T19:22:31.448Z,99968.79
2022-09-19T19:25:09.265Z,99972.23
2022-09-19T19:27:51.807Z,99975.08
2022-09-19T19:30:24.173Z,99979.27
2022-09-19T19:32:55.758Z,99983.16
2022-09-19T19:35:24.412Z,99982.61
2022-09-19T19:37:53.620Z,99981.83
2022-09-19T19:40:38.996Z,99983.32
2022-09-19T19:43:13.213Z,99983.48
2022-09-19T19:46:11.975Z,99984.98
2022-09-19T19:48:41.434Z,99983.06
2022-09-19T19:51:22.471Z,99985.98
2022-09-19T19:54:03.440Z,99986.46
2022-09-19T19:56:36.524Z,99979.41
2022-09-19T19:59:10.336Z,99985.23
2022-09-19T20:01:55.152Z,99988.61
2022-09-19T20:04:37.662Z,99991.09
2022-09-19T20:07:15.290Z,99992.48
2022-09-19T20:09:43.762Z,99993.90
2022-09-19T20:12:14.903Z,99997.40
2022-09-19T20:14:43.542Z,99996.53
2022-09-19T20:17:17.654Z,99994.48
2022-09-19T20:19:46.069Z,99991.91
2022-09-19T20:22:17.673Z,99993.52
2022-09-19T20:24:57.568Z,99990.54
2022-09-19T20:27:49.370Z,99994.77
2022-09-19T20:30:21.553Z,99993.99
2022-09-19T20:32:50.543Z,99991.16
2022-09-19T20:35:22.613Z,99987.63
2022-09-19T20:37:50.820Z,99988.44
2022-09-19T20:40:31.977Z,99988.92
2022-09-19T20:43:10.215Z,99989.39
2022-09-19T20:45:44.498Z,99986.80
2022-09-19T20:48:18.037Z,99990.39
2022-09-19T20:51:00.972Z,99988.54
2022-09-19T20:53:35.748Z,99986.45
2022-09-19T20:56:16.369Z,99989.98
2022-09-19T20:59:08.614Z,99993.36
2022-09-19T21:01:46.119Z,99994.13
2022-09-19T21:04:23.791Z,99995.48
2022-09-19T21:06:55.180Z,99998.72
2022-09-19T21:09:28.708Z,100003.63
2022-09-19T21:12:43.533Z,100002.75
2022-09-19T21:15:22.727Z,100009.35
2022-09-19T21:18:00.469Z,100004.38
2022-09-19T21:20:45.958Z,100008.80
2022-09-19T21:23:41.849Z,100001.67
2022-09-19T21:26:22.743Z,100003.54
2022-09-19T21:29:17.476Z,100004.85
2022-09-19T21:31:52.501Z,100003.20
2022-09-19T21:34:21.235Z,100003.00
2022-09-19T21:37:11.583Z,100008.20
2022-09-19T21:39:42.665Z,100008.84
2022-09-19T21:42:27.749Z,100011.34
2022-09-19T21:44:58.497Z,100014.80
2022-09-19T21:47:52.917Z,100015.20
2022-09-19T21:50:25.953Z,100014.39
2022-09-19T21:52:53.849Z,100018.35
2022-09-19T21:55:27.689Z,100018.40
2022-09-19T21:58:10.289Z,100017.08
2022-09-19T22:00:51.606Z,100021.52
2022-09-19T22:03:33.735Z,100023.67
2022-09-19T22:06:20.050Z,100024.77
2022-09-19T22:09:11.274Z,100024.98
2022-09-19T22:12:02.047Z,100024.08
2022-09-19T22:14:36.415Z,100025.84
2022-09-19T22:17:16.912Z,100029.71
2022-09-19T22:20:15.363Z,100024.52
2022-09-19T22:22:52.607Z,100025.73
2022-09-19T22:25:23.807Z,100028.15
2022-09-19T22:28:24.814Z,100016.27
2022-09-19T22:31:15.370Z,100018.79
2022-09-19T22:34:18.102Z,100020.73
2022-09-19T22:37:06.951Z,100024.30
2022-09-19T22:39:51.864Z,100024.88
2022-09-19T22:42:49.332Z,100023.67
2022-09-19T22:45:53.616Z,100028.48
2022-09-19T22:48:37.438Z,100023.99
2022-09-19T22:51:57.611Z,100028.77
2022-09-19T22:55:02.182Z,100029.30
2022-09-19T22:57:35.418Z,100030.36
2022-09-19T23:00:10.287Z,100037.19
2022-09-19T23:02:43.576Z,100036.15
2022-09-19T23:05:34.459Z,100033.36
2022-09-19T23:08:19.977Z,100040.23
2022-09-19T23:11:31.555Z,100043.13
2022-09-19T23:14:18.326Z,100045.70
2022-09-19T23:17:27.147Z,100046.27
2022-09-19T23:20:18.013Z,100046.73
2022-09-19T23:23:28.311Z,100048.70
2022-09-19T23:26:08.284Z,100049.02
2022-09-19T23:29:18.929Z,100052.01
2022-09-19T23:32:23.890Z,100053.88
2022-09-19T23:35:12.420Z,100058.14
2022-09-19T23:37:46.504Z,100062.32
2022-09-19T23:40:26.587Z,100065.07
2022-09-19T23:43:05.291Z,100067.46
2022-09-19T23:45:59.975Z,100071.54
2022-09-19T23:48:50.275Z,100069.88
2022-09-19T23:51:43.899Z,100066.20
2022-09-19T23:54:40.900Z,100069.52
2022-09-19T23:57:25.587Z,100072.95
